Time;durP1;ratioP1;P1;durP2;ratioP2;P2;SDS_P1;SDS_P2;PMS_P1;PMS_P2;Temp;Humidity;BMP_temperature;BMP_pressure;BME280_temperature;BME280_humidity;BME280_pressure;Samples;Min_cycle;Max_cycle;Signal;HPM_P1;HPM_P2
2022/06/27 00:01:03;;;;;;;2.00;1.80;;;23.80;61.80;;;;;;5033300;28;20076;-62
2022/06/27 00:03:29;;;;;;;2.60;1.88;;;23.80;61.80;;;;;;5012940;28;21146;-63
2022/06/27 00:05:54;;;;;;;2.20;1.60;;;23.80;61.80;;;;;;5033066;28;20037;-62
2022/06/27 00:08:20;;;;;;;1.70;1.60;;;23.80;61.90;;;;;;5031657;28;20567;-62
2022/06/27 00:10:46;;;;;;;2.45;1.50;;;23.80;61.80;;;;;;4997259;28;20113;-62
2022/06/27 00:13:11;;;;;;;1.92;1.67;;;23.80;61.70;;;;;;5032682;28;20558;-62
2022/06/27 00:15:37;;;;;;;2.15;1.90;;;23.80;61.70;;;;;;5032701;28;20045;-61
2022/06/27 00:18:03;;;;;;;3.13;1.77;;;23.80;61.70;;;;;;5015662;28;20076;-62
2022/06/27 00:20:29;;;;;;;2.00;1.42;;;23.80;61.70;;;;;;5030429;28;20056;-62
2022/06/27 00:22:54;;;;;;;1.50;1.35;;;23.80;61.70;;;;;;4995155;28;20862;-62
2022/06/27 00:25:20;;;;;;;1.85;1.60;;;23.80;61.80;;;;;;5032793;28;20072;-62
2022/06/27 00:27:46;;;;;;;1.70;1.60;;;23.80;61.80;;;;;;5028138;28;20402;-62
2022/06/27 00:30:12;;;;;;;2.25;1.67;;;23.80;61.70;;;;;;5013185;28;20123;-62
2022/06/27 00:32:38;;;;;;;2.05;1.85;;;23.80;61.70;;;;;;5030873;28;20095;-63
2022/06/27 00:35:06;;;;;;;1.90;1.52;;;23.80;61.70;;;;;;5012872;28;20046;-62
2022/06/27 00:37:31;;;;;;;2.58;1.55;;;23.80;61.70;;;;;;5032221;28;20151;-62
2022/06/27 00:39:57;;;;;;;2.85;1.88;;;23.80;61.70;;;;;;5028572;28;20602;-62
2022/06/27 00:42:23;;;;;;;2.05;1.85;;;23.80;61.60;;;;;;5030506;28;20053;-62
2022/06/27 00:44:48;;;;;;;2.13;1.85;;;23.80;61.60;;;;;;5029848;28;20049;-62
2022/06/27 00:47:15;;;;;;;2.42;1.90;;;23.80;61.60;;;;;;4999798;28;20640;-62
2022/06/27 00:49:41;;;;;;;4.00;1.63;;;23.80;61.60;;;;;;5031426;28;20442;-61
2022/06/27 00:52:10;;;;;;;1.90;1.80;;;23.80;61.50;;;;;;5027132;28;20069;-61
2022/06/27 00:54:37;;;;;;;2.10;1.90;;;23.80;61.60;;;;;;5030655;28;20041;-62
2022/06/27 00:57:04;;;;;;;1.50;1.40;;;23.80;61.60;;;;;;5030531;28;20033;-62
2022/06/27 00:59:30;;;;;;;2.45;1.77;;;23.70;61.50;;;;;;5029064;28;20048;-63
2022/06/27 01:01:55;;;;;;;1.52;1.40;;;23.80;61.50;;;;;;5011021;28;20045;-62
2022/06/27 01:04:22;;;;;;;2.22;1.80;;;23.80;61.50;;;;;;5030271;28;20029;-64
2022/06/27 01:06:51;;;;;;;1.73;1.63;;;23.80;61.50;;;;;;5028433;28;20132;-63
2022/06/27 01:09:19;;;;;;;2.13;1.70;;;23.70;61.40;;;;;;5030714;28;20033;-63
2022/06/27 01:11:45;;;;;;;1.67;1.58;;;23.80;61.50;;;;;;5030460;28;20059;-62
2022/06/27 01:14:12;;;;;;;3.35;1.75;;;23.80;61.50;;;;;;5016946;28;20037;-62
2022/06/27 01:16:39;;;;;;;1.70;1.60;;;23.80;61.50;;;;;;5029527;28;20041;-62
2022/06/27 01:19:09;;;;;;;1.55;1.45;;;23.80;62.20;;;;;;5029953;28;20083;-62
2022/06/27 01:21:40;;;;;;;1.67;1.58;;;23.70;61.40;;;;;;5014678;28;20124;-62
2022/06/27 01:24:06;;;;;;;2.00;1.70;;;23.70;61.40;;;;;;5033896;28;20611;-62
2022/06/27 01:26:32;;;;;;;2.03;1.70;;;23.70;61.30;;;;;;5029966;28;20067;-61
2022/06/27 01:28:58;;;;;;;2.70;1.40;;;23.70;61.30;;;;;;5031331;28;20044;-61
2022/06/27 01:31:24;;;;;;;1.92;1.80;;;23.70;61.30;;;;;;5032263;28;20983;-62
2022/06/27 01:33:49;;;;;;;2.00;1.80;;;23.70;61.20;;;;;;5012000;28;20038;-62
2022/06/27 01:38:59;;;;;;;2.17;1.65;;;23.70;61.30;;;;;;5012328;28;20056;-63
2022/06/27 01:41:26;;;;;;;1.83;1.38;;;23.70;61.30;;;;;;5029805;28;20045;-61
2022/06/27 01:43:51;;;;;;;2.08;1.63;;;23.70;61.30;;;;;;5030152;28;20037;-61
2022/06/27 01:46:17;;;;;;;1.52;1.42;;;23.70;61.30;;;;;;5028855;28;20049;-61
2022/06/27 01:48:43;;;;;;;2.03;1.80;;;23.70;61.30;;;;;;5027273;28;20504;-62
2022/06/27 01:51:09;;;;;;;2.08;1.58;;;23.70;61.30;;;;;;5031282;28;20481;-61
2022/06/27 01:53:36;;;;;;;2.15;1.95;;;23.70;61.30;;;;;;5028972;28;20041;-62
2022/06/27 01:56:02;;;;;;;1.60;1.50;;;23.70;61.30;;;;;;5029504;28;20064;-62
2022/06/27 01:58:28;;;;;;;1.75;1.48;;;23.70;61.30;;;;;;5030179;28;20045;-61
2022/06/27 02:00:54;;;;;;;1.80;1.65;;;23.70;61.30;;;;;;5027880;28;20523;-62
2022/06/27 02:03:19;;;;;;;2.38;1.90;;;23.70;61.30;;;;;;4995494;28;20036;-62
2022/06/27 02:05:45;;;;;;;1.80;1.63;;;23.70;61.20;;;;;;5029766;28;20060;-63
2022/06/27 02:08:11;;;;;;;2.42;1.70;;;23.70;61.20;;;;;;5029278;28;20114;-63
2022/06/27 02:10:37;;;;;;;1.50;1.40;;;23.70;61.30;;;;;;5028740;28;20041;-62
2022/06/27 02:13:03;;;;;;;1.55;1.45;;;23.70;61.20;;;;;;5029407;28;20207;-62
2022/06/27 02:15:30;;;;;;;1.60;1.50;;;23.70;61.30;;;;;;5025505;28;20037;-63
2022/06/27 02:17:56;;;;;;;2.28;1.80;;;23.70;61.30;;;;;;5028331;28;20128;-63
2022/06/27 02:20:22;;;;;;;1.70;1.50;;;23.70;61.30;;;;;;5027350;28;20124;-63
2022/06/27 02:22:48;;;;;;;1.75;1.48;;;23.70;61.30;;;;;;5025937;28;20041;-62
2022/06/27 02:25:13;;;;;;;2.25;1.60;;;23.70;61.30;;;;;;5025576;28;20040;-62
2022/06/27 02:27:41;;;;;;;2.90;1.30;;;23.70;61.30;;;;;;5029643;28;20408;-62
2022/06/27 02:30:08;;;;;;;1.65;1.55;;;23.70;61.30;;;;;;5024589;28;20474;-62
2022/06/27 02:32:34;;;;;;;1.95;1.75;;;23.70;61.30;;;;;;5027326;28;20039;-61
2022/06/27 02:35:00;;;;;;;1.55;1.45;;;23.70;61.30;;;;;;5009524;28;20047;-61
2022/06/27 02:37:26;;;;;;;2.35;1.60;;;23.70;61.30;;;;;;5027844;28;20040;-62
2022/06/27 02:39:56;;;;;;;1.50;1.40;;;23.70;61.20;;;;;;5031108;28;20052;-62
2022/06/27 02:42:23;;;;;;;1.63;1.50;;;23.70;61.30;;;;;;5027758;28;20095;-62
2022/06/27 02:44:49;;;;;;;1.77;1.48;;;23.60;61.20;;;;;;5025727;28;20059;-62
2022/06/27 02:47:19;;;;;;;2.42;1.85;;;23.70;61.30;;;;;;5030277;28;20050;-62
2022/06/27 02:49:45;;;;;;;2.67;1.63;;;23.70;61.30;;;;;;5009146;28;20042;-62
2022/06/27 02:52:23;;;;;;;1.52;1.42;;;23.70;62.00;;;;;;5027567;28;20044;-62
2022/06/27 02:55:01;;;;;;;1.77;1.45;;;23.70;61.30;;;;;;5029483;28;20048;-62
2022/06/27 02:57:40;;;;;;;2.10;1.67;;;23.60;61.20;;;;;;5025502;28;20451;-62
2022/06/27 03:00:07;;;;;;;1.85;1.50;;;23.70;61.30;;;;;;5025680;28;20041;-62
2022/06/27 03:02:40;;;;;;;1.60;1.50;;;23.60;61.20;;;;;;5012521;28;20396;-62
2022/06/27 03:05:06;;;;;;;1.95;1.60;;;23.60;61.20;;;;;;5010086;28;20417;-61
2022/06/27 03:07:43;;;;;;;2.40;1.70;;;23.60;61.20;;;;;;5030459;28;20058;-62
2022/06/27 03:10:10;;;;;;;1.90;1.80;;;23.60;61.20;;;;;;5027337;28;20034;-61
2022/06/27 03:12:36;;;;;;;1.67;1.50;;;23.60;61.20;;;;;;5028945;28;20041;-63
2022/06/27 03:15:02;;;;;;;1.80;1.70;;;23.70;61.30;;;;;;5027670;28;20110;-61
2022/06/27 03:17:27;;;;;;;2.25;1.60;;;23.60;61.20;;;;;;5011433;28;20375;-62
2022/06/27 03:19:53;;;;;;;1.73;1.40;;;23.60;61.20;;;;;;5029194;28;20041;-62
2022/06/27 03:22:19;;;;;;;1.63;1.52;;;23.60;61.20;;;;;;5009075;28;20063;-63
2022/06/27 03:24:45;;;;;;;1.65;1.35;;;23.60;61.20;;;;;;5010919;28;20045;-63
2022/06/27 03:27:10;;;;;;;3.33;1.50;;;23.60;61.20;;;;;;5027767;28;20533;-63
2022/06/27 03:29:39;;;;;;;2.47;1.55;;;23.60;61.30;;;;;;5028692;28;20041;-64
2022/06/27 03:32:05;;;;;;;2.55;1.50;;;23.70;61.40;;;;;;5029595;28;20417;-64
2022/06/27 03:34:31;;;;;;;1.40;1.27;;;23.70;61.50;;;;;;4999710;28;20106;-63
2022/06/27 03:36:57;;;;;;;2.50;1.63;;;23.70;61.70;;;;;;5011798;28;20045;-63
2022/06/27 03:39:23;;;;;;;1.50;1.40;;;23.70;61.60;;;;;;5027771;28;20052;-64
2022/06/27 03:41:49;;;;;;;2.00;1.40;;;23.80;61.60;;;;;;5028152;28;20042;-63
2022/06/27 03:44:15;;;;;;;2.83;1.67;;;23.70;61.50;;;;;;4995215;28;20072;-63
2022/06/27 03:46:41;;;;;;;3.33;1.70;;;23.70;61.20;;;;;;5027765;28;20128;-63
2022/06/27 03:51:53;;;;;;;1.90;1.52;;;23.70;61.40;;;;;;5029047;28;20055;-63
2022/06/27 03:54:18;;;;;;;9.85;2.08;;;23.80;61.30;;;;;;4998990;28;20078;-63
2022/06/27 03:56:44;;;;;;;2.10;1.80;;;23.70;61.30;;;;;;5032198;28;20049;-63
2022/06/27 03:59:10;;;;;;;2.22;1.58;;;23.70;61.50;;;;;;5032703;28;20139;-63
2022/06/27 04:01:36;;;;;;;4.43;1.83;;;23.80;61.50;;;;;;5032564;28;20056;-63
2022/06/27 04:04:02;;;;;;;3.30;1.70;;;23.80;61.40;;;;;;5030906;28;20485;-63
2022/06/27 04:06:29;;;;;;;4.15;1.65;;;23.70;61.30;;;;;;5032934;28;20451;-63
2022/06/27 04:08:54;;;;;;;2.05;1.40;;;23.70;61.30;;;;;;5030472;28;20064;-63
2022/06/27 04:11:20;;;;;;;3.17;1.70;;;23.70;61.30;;;;;;5029981;28;20458;-63
2022/06/27 04:13:46;;;;;;;2.30;1.55;;;23.80;61.40;;;;;;5032032;28;20033;-63
2022/06/27 04:16:12;;;;;;;2.47;1.70;;;23.70;61.40;;;;;;5030833;28;20040;-64
2022/06/27 04:18:37;;;;;;;3.33;1.85;;;23.70;61.30;;;;;;5033153;28;20051;-63
2022/06/27 04:21:03;;;;;;;2.97;1.95;;;23.70;61.30;;;;;;5031386;28;20068;-63
2022/06/27 04:23:29;;;;;;;2.28;2.08;;;23.80;61.40;;;;;;5028915;28;20477;-64
2022/06/27 04:25:54;;;;;;;2.90;1.73;;;23.70;61.30;;;;;;5031332;28;20041;-64
2022/06/27 04:28:20;;;;;;;2.28;1.80;;;23.70;61.30;;;;;;5010825;28;20084;-63
2022/06/27 04:30:47;;;;;;;1.83;1.50;;;23.70;61.30;;;;;;5031353;28;20079;-64
2022/06/27 04:33:12;;;;;;;2.58;1.73;;;23.70;61.30;;;;;;5030034;28;20045;-64
2022/06/27 04:35:40;;;;;;;2.33;1.80;;;23.70;61.30;;;;;;5018979;28;20060;-63
2022/06/27 04:38:06;;;;;;;6.07;1.92;;;23.70;61.30;;;;;;5030384;28;20045;-63
2022/06/27 04:40:33;;;;;;;1.90;1.80;;;23.70;61.40;;;;;;5014834;28;20104;-63
2022/06/27 04:42:59;;;;;;;2.45;1.83;;;23.70;61.40;;;;;;5031278;28;20512;-64
2022/06/27 04:45:26;;;;;;;2.35;1.90;;;23.70;61.40;;;;;;5013822;28;20418;-63
2022/06/27 04:47:52;;;;;;;3.20;1.80;;;23.70;61.40;;;;;;5030206;28;20041;-64
2022/06/27 04:50:21;;;;;;;2.00;1.80;;;23.70;61.40;;;;;;5030579;28;20030;-63
2022/06/27 04:52:48;;;;;;;1.90;1.67;;;23.70;61.40;;;;;;4996808;28;20076;-63
2022/06/27 04:55:13;;;;;;;2.00;1.90;;;23.70;61.40;;;;;;5032146;28;20045;-63
2022/06/27 04:57:42;;;;;;;3.70;2.10;;;23.70;61.40;;;;;;5029808;28;20574;-64
2022/06/27 05:00:13;;;;;;;1.70;1.60;;;23.70;61.30;;;;;;5032864;28;20674;-63
2022/06/27 05:02:39;;;;;;;;;;;23.70;61.40;;;;;;5028838;28;20120;-63
2022/06/27 05:05:05;;;;;;;2.30;1.70;;;23.70;61.30;;;;;;5030217;28;20326;-64
2022/06/27 05:07:31;;;;;;;3.22;1.80;;;23.60;61.40;;;;;;5030942;28;20112;-62
2022/06/27 05:09:57;;;;;;;2.05;1.80;;;23.70;61.40;;;;;;5030372;28;20049;-63
2022/06/27 05:12:24;;;;;;;3.53;1.75;;;23.70;61.50;;;;;;5029992;28;20033;-63
2022/06/27 05:14:51;;;;;;;2.08;1.80;;;23.60;61.40;;;;;;5028204;28;20049;-63
2022/06/27 05:17:17;;;;;;;2.03;1.85;;;23.70;61.50;;;;;;5031982;28;20045;-63
2022/06/27 05:19:42;;;;;;;4.18;2.00;;;23.70;61.50;;;;;;5028939;28;20033;-63
2022/06/27 05:22:08;;;;;;;1.67;1.58;;;23.70;61.50;;;;;;5029822;28;20083;-63
2022/06/27 05:24:34;;;;;;;2.58;1.83;;;23.70;61.40;;;;;;4996755;28;20042;-63
2022/06/27 05:27:00;;;;;;;2.05;1.80;;;23.70;61.40;;;;;;5030741;28;20052;-63
2022/06/27 05:29:26;;;;;;;3.63;1.80;;;23.70;61.30;;;;;;5030084;28;20052;-63
2022/06/27 05:31:52;;;;;;;2.10;1.70;;;23.70;61.40;;;;;;5030623;28;20107;-63
2022/06/27 05:34:18;;;;;;;1.55;1.45;;;23.70;61.40;;;;;;5010278;28;20041;-63
2022/06/27 05:36:43;;;;;;;2.35;1.70;;;23.70;61.30;;;;;;5028874;28;20849;-63
2022/06/27 05:39:09;;;;;;;1.98;1.60;;;23.70;61.30;;;;;;5027836;28;20124;-63
2022/06/27 05:41:36;;;;;;;2.92;2.30;;;23.70;61.30;;;;;;5028496;28;20045;-63
2022/06/27 05:44:02;;;;;;;2.35;1.50;;;23.70;61.30;;;;;;5028769;28;20136;-63
2022/06/27 05:46:28;;;;;;;1.45;1.30;;;23.70;61.30;;;;;;5028030;28;20049;-64
2022/06/27 05:48:55;;;;;;;1.65;1.55;;;23.70;61.30;;;;;;5029918;28;20045;-63
2022/06/27 05:51:22;;;;;;;1.77;1.67;;;23.60;61.20;;;;;;5029592;28;20336;-63
2022/06/27 05:53:49;;;;;;;2.10;1.52;;;23.60;61.20;;;;;;5007755;28;20045;-63
2022/06/27 05:56:15;;;;;;;1.77;1.50;;;23.60;61.20;;;;;;5008841;28;20049;-63
2022/06/27 05:58:41;;;;;;;2.72;1.60;;;23.60;61.20;;;;;;5029680;28;20516;-63
2022/06/27 06:01:09;;;;;;;4.65;1.70;;;23.60;61.20;;;;;;5027425;28;20042;-63
2022/06/27 06:03:35;;;;;;;2.05;1.73;;;23.60;61.10;;;;;;5029299;28;20044;-63
2022/06/27 06:06:01;;;;;;;2.95;1.58;;;23.60;61.10;;;;;;5028276;28;20448;-63
2022/06/27 06:08:26;;;;;;;1.55;1.45;;;23.60;61.10;;;;;;5029325;28;20136;-63
2022/06/27 06:10:52;;;;;;;1.70;1.60;;;23.60;61.10;;;;;;5028281;28;20116;-63
2022/06/27 06:13:18;;;;;;;1.40;1.30;;;23.60;61.10;;;;;;5030568;28;20102;-63
2022/06/27 06:15:45;;;;;;;1.52;1.42;;;23.60;61.00;;;;;;5032870;28;20041;-63
2022/06/27 06:18:11;;;;;;;2.20;1.60;;;23.70;61.10;;;;;;5028697;28;20052;-63
2022/06/27 06:20:37;;;;;;;1.83;1.40;;;23.70;61.10;;;;;;5030378;28;20056;-63
2022/06/27 06:23:03;;;;;;;2.33;1.40;;;23.70;61.00;;;;;;5009724;28;20049;-63
2022/06/27 06:25:30;;;;;;;1.88;1.50;;;23.60;61.00;;;;;;4993438;28;20382;-63
2022/06/27 06:28:03;;;;;;;1.63;1.52;;;23.60;61.00;;;;;;5029842;28;20056;-63
2022/06/27 06:30:30;;;;;;;1.50;1.40;;;23.60;61.00;;;;;;5008966;28;20094;-63
2022/06/27 06:33:01;;;;;;;2.90;1.50;;;23.60;60.90;;;;;;5030158;28;20041;-63
2022/06/27 06:35:27;;;;;;;1.38;1.27;;;23.60;60.90;;;;;;5010361;28;20045;-63
2022/06/27 06:37:53;;;;;;;2.47;1.40;;;23.60;61.00;;;;;;5011764;28;20073;-63
2022/06/27 06:40:19;;;;;;;1.52;1.42;;;23.60;61.00;;;;;;5027133;28;20596;-63
2022/06/27 06:42:45;;;;;;;1.20;1.10;;;23.60;61.00;;;;;;5012328;28;20052;-63
2022/06/27 06:45:11;;;;;;;3.72;1.33;;;23.60;61.10;;;;;;5012491;28;20053;-63
2022/06/27 06:47:44;;;;;;;1.67;1.33;;;23.60;61.00;;;;;;5031718;28;20511;-62
2022/06/27 06:50:13;;;;;;;1.63;1.30;;;23.60;61.10;;;;;;4997968;28;20104;-63
2022/06/27 06:52:41;;;;;;;2.55;1.40;;;23.60;61.10;;;;;;5027525;28;20144;-63
2022/06/27 06:55:08;;;;;;;1.40;1.30;;;23.60;61.20;;;;;;5026478;28;20083;-63
2022/06/27 06:57:34;;;;;;;2.17;1.58;;;23.60;61.10;;;;;;5025606;28;20590;-64
2022/06/27 06:59:59;;;;;;;3.20;1.58;;;23.70;61.30;;;;;;5028138;28;20354;-63
2022/06/27 07:02:26;;;;;;;3.13;1.35;;;23.70;61.30;;;;;;4999740;28;20042;-64
2022/06/27 07:04:52;;;;;;;3.17;1.42;;;23.70;61.40;;;;;;5025214;28;20040;-64
2022/06/27 07:07:19;;;;;;;3.00;1.55;;;23.70;61.60;;;;;;5024189;28;20045;-63
2022/06/27 07:09:44;;;;;;;4.05;1.48;;;23.60;61.60;;;;;;5026051;28;20065;-63
2022/06/27 07:12:11;;;;;;;1.50;1.33;;;23.70;61.90;;;;;;5025154;28;20080;-64
2022/06/27 07:14:36;;;;;;;4.50;1.38;;;23.70;62.00;;;;;;5002573;28;20513;-64
2022/06/27 07:17:02;;;;;;;3.97;1.70;;;23.70;62.00;;;;;;5007154;28;20125;-64
2022/06/27 07:19:29;;;;;;;3.05;1.30;;;23.70;62.00;;;;;;5022222;28;20567;-63
2022/06/27 07:21:54;;;;;;;1.58;1.20;;;23.70;62.10;;;;;;5022609;28;20138;-63
2022/06/27 07:24:20;;;;;;;3.40;1.50;;;23.70;62.20;;;;;;5025387;28;20908;-64
2022/06/27 07:26:46;;;;;;;2.72;1.33;;;23.70;62.30;;;;;;5028297;28;20931;-63
2022/06/27 07:29:12;;;;;;;4.43;1.40;;;23.70;62.40;;;;;;5012400;28;20120;-63
2022/06/27 07:31:37;;;;;;;2.80;1.33;;;23.80;62.50;;;;;;5032210;28;20046;-63
2022/06/27 07:34:08;;;;;;;2.88;1.30;;;23.70;62.50;;;;;;5015916;28;20053;-63
2022/06/27 07:36:35;;;;;;;2.40;1.33;;;23.80;62.70;;;;;;5030824;28;20866;-63
2022/06/27 07:39:01;;;;;;;4.22;1.45;;;23.80;62.60;;;;;;5032168;28;20126;-63
2022/06/27 07:41:30;;;;;;;1.58;1.30;;;23.80;62.60;;;;;;5031559;28;20037;-63
2022/06/27 07:43:56;;;;;;;1.63;1.52;;;23.80;62.50;;;;;;5028264;28;20067;-62
2022/06/27 07:46:22;;;;;;;6.43;1.25;;;23.80;62.40;;;;;;5009347;28;20341;-65
2022/06/27 07:48:49;;;;;;;5.05;1.70;;;23.80;62.50;;;;;;5030534;28;20041;-61
2022/06/27 07:51:19;;;;;;;7.25;1.60;;;23.80;62.70;;;;;;5031067;28;20156;-62
2022/06/27 07:53:47;;;;;;;3.22;1.33;;;23.80;62.90;;;;;;5027456;28;20153;-62
2022/06/27 07:56:14;;;;;;;9.38;1.83;;;23.80;63.00;;;;;;5032826;28;20171;-62
2022/06/27 07:58:40;;;;;;;3.03;1.50;;;23.80;63.10;;;;;;5031737;28;20049;-62
2022/06/27 08:01:16;;;;;;;4.00;1.40;;;23.80;63.10;;;;;;5033672;28;20045;-63
2022/06/27 08:03:43;;;;;;;4.00;1.50;;;23.80;63.20;;;;;;5031817;28;20056;-64
2022/06/27 08:06:19;;;;;;;2.30;1.23;;;23.80;63.20;;;;;;5028613;28;20060;-63
2022/06/27 08:08:47;;;;;;;3.67;1.45;;;23.80;63.20;;;;;;5033071;28;20474;-64
2022/06/27 08:11:17;;;;;;;1.90;1.15;;;23.80;63.30;;;;;;5014659;28;20072;-64
2022/06/27 08:13:45;;;;;;;1.92;1.40;;;23.80;63.30;;;;;;5029280;28;20041;-64
2022/06/27 08:16:15;;;;;;;2.40;1.40;;;23.90;63.40;;;;;;4996699;28;20041;-64
2022/06/27 08:18:43;;;;;;;;;;;23.90;63.50;;;;;;5030218;28;20510;-63
2022/06/27 08:21:10;;;;;;;2.58;1.42;;;23.80;63.60;;;;;;4999820;28;19921;-63
2022/06/27 08:23:36;;;;;;;2.53;1.25;;;23.90;63.60;;;;;;5010428;28;20049;-63
2022/06/27 08:26:06;;;;;;;1.35;1.25;;;23.90;63.70;;;;;;5028693;28;20040;-63
2022/06/27 08:28:33;;;;;;;6.25;1.65;;;23.90;63.90;;;;;;5012310;28;20041;-63
2022/06/27 08:31:01;;;;;;;8.27;1.88;;;23.90;64.10;;;;;;5029286;28;20037;-63
2022/06/27 08:33:30;;;;;;;3.58;1.70;;;23.90;64.20;;;;;;5013666;28;20045;-63
2022/06/27 08:35:57;;;;;;;6.72;1.60;;;23.90;64.30;;;;;;5030758;28;20076;-63
2022/06/27 08:38:23;;;;;;;4.95;1.50;;;23.90;64.40;;;;;;5016006;28;20167;-63
2022/06/27 08:40:50;;;;;;;4.53;1.60;;;23.90;64.50;;;;;;5012509;28;20068;-63
2022/06/27 08:43:17;;;;;;;3.28;1.38;;;23.90;64.70;;;;;;5011059;28;20048;-63
2022/06/27 08:45:47;;;;;;;2.17;1.50;;;23.90;64.80;;;;;;5028861;28;20116;-63
2022/06/27 08:48:14;;;;;;;2.70;1.25;;;23.90;64.90;;;;;;5016283;28;20044;-63
2022/06/27 08:50:41;;;;;;;5.22;1.75;;;23.90;64.90;;;;;;5028921;28;20045;-63
2022/06/27 08:53:08;;;;;;;5.53;1.50;;;23.90;64.90;;;;;;5011600;28;20576;-64
2022/06/27 08:55:34;;;;;;;3.22;1.38;;;24.00;65.00;;;;;;5020451;28;20061;-64
2022/06/27 08:58:06;;;;;;;6.97;1.55;;;24.00;65.10;;;;;;5027943;28;20060;-63
2022/06/27 09:00:34;;;;;;;1.90;1.58;;;23.90;65.30;;;;;;5012674;28;20068;-62
2022/06/27 09:02:59;;;;;;;5.57;1.77;;;24.00;65.60;;;;;;5013127;28;20115;-63
2022/06/27 09:05:27;;;;;;;5.10;1.52;;;24.00;65.40;;;;;;5031595;28;20568;-63
2022/06/27 09:07:54;;;;;;;2.97;1.42;;;24.00;65.40;;;;;;5029250;28;20042;-63
2022/06/27 09:10:29;;;;;;;2.95;1.75;;;24.00;65.30;;;;;;5031432;28;20617;-63
2022/06/27 09:12:57;;;;;;;5.82;1.42;;;24.00;65.20;;;;;;5030102;28;20773;-63
2022/06/27 09:15:29;;;;;;;4.32;1.73;;;24.00;65.10;;;;;;5031719;28;20432;-62
2022/06/27 09:18:02;;;;;;;7.25;1.77;;;24.00;64.90;;;;;;5032863;28;20849;-62
2022/06/27 09:20:48;;;;;;;3.28;1.42;;;24.00;64.80;;;;;;5029359;28;20045;-63
2022/06/27 09:23:27;;;;;;;3.30;1.40;;;23.90;64.80;;;;;;5031915;28;20151;-62
2022/06/27 09:26:00;;;;;;;2.25;1.30;;;24.00;64.40;;;;;;5033707;28;20103;-61
2022/06/27 09:28:53;;;;;;;2.38;1.40;;;24.10;64.10;;;;;;5033864;28;20092;-63
2022/06/27 09:31:25;;;;;;;3.75;1.30;;;24.10;63.90;;;;;;5032887;28;20466;-62
2022/06/27 09:34:03;;;;;;;4.88;1.38;;;24.00;63.80;;;;;;5033365;28;20071;-65
2022/06/27 09:36:31;;;;;;;1.48;1.38;;;24.00;63.70;;;;;;5031518;28;20128;-63
2022/06/27 09:38:57;;;;;;;2.55;1.40;;;24.00;63.60;;;;;;5028162;28;20052;-62
2022/06/27 09:41:29;;;;;;;1.88;1.38;;;24.00;63.50;;;;;;5030332;28;20398;-61
2022/06/27 09:44:00;;;;;;;1.67;1.25;;;24.10;63.60;;;;;;5014156;28;20041;-63
2022/06/27 09:46:29;;;;;;;2.10;1.52;;;24.10;63.60;;;;;;5014175;28;20045;-62
2022/06/27 09:48:57;;;;;;;3.00;1.30;;;24.10;63.50;;;;;;5015791;28;20053;-61
2022/06/27 09:51:25;;;;;;;3.17;1.48;;;24.00;63.60;;;;;;5012177;28;20442;-64
2022/06/27 09:53:51;;;;;;;2.35;1.27;;;24.00;64.00;;;;;;5031524;28;20037;-65
2022/06/27 09:56:20;;;;;;;2.20;1.20;;;24.00;64.10;;;;;;5031812;28;20514;-63
2022/06/27 09:58:46;;;;;;;3.05;1.42;;;24.00;64.20;;;;;;5016517;28;20061;-63
2022/06/27 10:01:13;;;;;;;5.20;1.40;;;24.00;64.20;;;;;;5013970;28;20034;-62
2022/06/27 10:03:41;;;;;;;3.83;1.42;;;24.00;64.20;;;;;;5032996;28;20037;-63
2022/06/27 10:06:09;;;;;;;2.05;1.30;;;24.00;64.20;;;;;;5031485;28;20075;-63
2022/06/27 10:08:36;;;;;;;3.58;1.42;;;24.00;64.90;;;;;;5026841;28;20387;-63
2022/06/27 10:11:02;;;;;;;1.40;1.30;;;24.00;64.20;;;;;;5030711;28;20424;-61
2022/06/27 10:13:31;;;;;;;3.47;1.80;;;24.00;64.20;;;;;;5030060;28;20033;-63
2022/06/27 10:16:10;;;;;;;7.57;1.48;;;24.00;64.10;;;;;;5031882;28;20044;-63
2022/06/27 10:19:14;;;;;;;4.97;1.55;;;24.00;63.90;;;;;;5031509;28;20127;-64
2022/06/27 10:21:42;;;;;;;2.42;1.67;;;23.90;63.70;;;;;;4980346;28;20093;-62
2022/06/27 10:24:19;;;;;;;1.70;1.17;;;23.90;63.70;;;;;;5023950;28;20106;-64
2022/06/27 10:26:50;;;;;;;11.10;2.15;;;23.90;63.50;;;;;;5029754;28;20046;-62
2022/06/27 10:29:39;;;;;;;4.07;1.48;;;23.90;63.70;;;;;;5029362;28;20043;-62
2022/06/27 10:32:07;;;;;;;2.88;1.55;;;23.90;63.60;;;;;;5031797;28;20042;-63
2022/06/27 10:34:46;;;;;;;4.55;1.55;;;23.90;63.70;;;;;;5013380;28;20041;-63
2022/06/27 10:37:21;;;;;;;4.97;1.60;;;23.90;63.60;;;;;;5031265;28;20598;-62
2022/06/27 10:39:48;;;;;;;8.02;1.90;;;23.90;63.70;;;;;;5016804;28;20049;-63
2022/06/27 10:42:45;;;;;;;3.88;1.63;;;23.90;63.60;;;;;;5013598;28;20037;-63
2022/06/27 10:45:20;;;;;;;4.50;1.55;;;23.90;63.40;;;;;;5029728;28;20247;-63
2022/06/27 10:47:49;;;;;;;5.43;2.25;;;23.90;63.60;;;;;;5033521;28;20297;-65
2022/06/27 10:50:18;;;;;;;8.07;1.83;;;23.90;63.10;;;;;;5030523;28;20095;-61
2022/06/27 10:52:45;;;;;;;5.43;1.80;;;23.90;63.30;;;;;;5032933;28;20037;-62
2022/06/27 10:55:24;;;;;;;6.10;1.95;;;23.90;63.30;;;;;;5030274;28;20029;-62
2022/06/27 10:57:50;;;;;;;6.68;2.15;;;23.90;62.70;;;;;;5030229;28;20128;-63
2022/06/27 11:00:37;;;;;;;3.85;1.90;;;23.90;62.80;;;;;;5009798;28;20135;-63
2022/06/27 11:03:03;;;;;;;5.95;1.98;;;23.90;62.70;;;;;;5030508;28;20116;-63
2022/06/27 11:05:32;;;;;;;5.22;1.70;;;23.90;62.80;;;;;;5035023;28;20041;-63
2022/06/27 11:07:59;;;;;;;5.78;2.10;;;23.90;62.70;;;;;;5014477;28;20156;-64
2022/06/27 11:10:25;;;;;;;5.72;2.05;;;23.90;62.70;;;;;;5018139;28;20045;-63
2022/06/27 11:12:50;;;;;;;5.28;1.95;;;23.90;62.70;;;;;;5033864;28;20036;-64
2022/06/27 11:15:16;;;;;;;3.92;2.10;;;23.90;62.70;;;;;;5036471;28;20397;-63
2022/06/27 11:17:45;;;;;;;11.02;2.67;;;23.90;62.80;;;;;;5014337;28;20044;-64
2022/06/27 11:20:25;;;;;;;6.85;2.25;;;23.90;62.70;;;;;;5016925;28;20095;-64
2022/06/27 11:22:59;;;;;;;4.28;2.45;;;23.90;62.70;;;;;;5029148;28;20037;-64
2022/06/27 11:25:29;;;;;;;3.15;2.10;;;23.90;62.70;;;;;;5032573;28;20128;-64
2022/06/27 11:31:57;;;;;;;7.07;2.70;;;23.90;62.80;;;;;;4983093;28;20049;-64
2022/06/27 11:33:35;;;;;;;5.60;2.45;;;23.90;62.80;;;;;;5029862;28;20060;-64
2022/06/27 11:36:02;;;;;;;3.72;2.00;;;23.90;62.50;;;;;;5030925;28;20045;-64
2022/06/27 11:38:29;;;;;;;8.32;2.35;;;23.90;62.50;;;;;;5027854;28;20036;-63
2022/06/27 11:41:06;;;;;;;7.22;2.10;;;23.90;62.40;;;;;;5031433;28;20530;-65
2022/06/27 11:43:44;;;;;;;4.82;2.20;;;23.90;62.30;;;;;;5032218;28;20575;-64
2022/06/27 11:46:36;;;;;;;3.08;2.05;;;23.90;62.20;;;;;;5030012;28;20041;-64
2022/06/27 11:49:02;;;;;;;3.63;1.80;;;23.90;62.30;;;;;;5028522;28;20037;-64
2022/06/27 11:51:36;;;;;;;3.83;2.00;;;23.90;62.30;;;;;;4997601;28;20052;-64
2022/06/27 11:54:11;;;;;;;3.88;1.80;;;23.90;62.20;;;;;;5013891;28;20112;-64
2022/06/27 11:56:39;;;;;;;2.80;2.00;;;23.90;62.20;;;;;;5029755;28;20079;-65
2022/06/27 11:59:07;;;;;;;2.42;1.60;;;23.90;62.10;;;;;;5010136;28;20053;-64
2022/06/27 12:01:37;;;;;;;3.28;1.92;;;23.90;62.10;;;;;;4980277;28;20278;-65
2022/06/27 12:04:17;;;;;;;3.85;2.00;;;23.90;62.00;;;;;;5032420;28;20045;-64
2022/06/27 12:06:48;;;;;;;3.92;2.20;;;23.90;62.00;;;;;;5011414;28;20045;-65
2022/06/27 12:09:14;;;;;;;2.42;2.10;;;23.90;62.20;;;;;;5031306;28;20115;-65
2022/06/27 12:11:55;;;;;;;4.90;2.03;;;23.90;62.10;;;;;;5028378;28;20049;-64
2022/06/27 12:14:22;;;;;;;5.18;2.17;;;23.90;62.00;;;;;;5027533;28;20029;-64
2022/06/27 12:16:50;;;;;;;2.83;2.08;;;23.90;62.10;;;;;;5030606;28;20037;-64
2022/06/27 12:19:16;;;;;;;2.30;2.10;;;23.90;62.00;;;;;;5030282;28;20124;-64
2022/06/27 12:21:43;;;;;;;2.50;2.05;;;23.90;61.90;;;;;;5011897;28;20045;-64
2022/06/27 12:24:09;;;;;;;3.20;2.05;;;23.90;61.90;;;;;;5013838;28;20931;-64
2022/06/27 12:26:35;;;;;;;4.47;1.95;;;23.90;61.80;;;;;;5029650;28;20135;-64
2022/06/27 12:29:01;;;;;;;2.47;1.85;;;23.90;61.80;;;;;;5032738;28;20044;-64
2022/06/27 12:31:26;;;;;;;2.40;2.20;;;23.90;61.60;;;;;;5030077;28;20046;-65
2022/06/27 12:33:53;;;;;;;4.47;1.95;;;23.90;61.60;;;;;;5029125;28;20037;-64
2022/06/27 12:36:19;;;;;;;3.15;2.10;;;23.90;61.60;;;;;;5028464;28;20640;-63
2022/06/27 12:38:44;;;;;;;2.85;2.03;;;23.90;61.60;;;;;;5030441;28;20133;-65
2022/06/27 12:41:14;;;;;;;3.22;2.05;;;23.90;61.60;;;;;;5030368;28;20072;-64
2022/06/27 12:43:45;;;;;;;2.00;1.90;;;23.90;61.50;;;;;;5027902;28;20071;-66
2022/06/27 12:46:12;;;;;;;2.30;2.10;;;23.90;61.50;;;;;;5010744;28;20299;-65
2022/06/27 12:48:38;;;;;;;3.65;2.20;;;23.90;61.40;;;;;;5029855;28;20052;-66
2022/06/27 12:51:06;;;;;;;2.65;2.22;;;23.90;61.40;;;;;;5031608;28;20108;-65
2022/06/27 12:53:32;;;;;;;4.10;2.03;;;23.90;61.40;;;;;;5031200;28;20099;-64
2022/06/27 12:55:58;;;;;;;2.70;2.00;;;23.90;61.50;;;;;;5011229;28;20137;-66
2022/06/27 12:58:25;;;;;;;2.58;1.83;;;23.90;61.30;;;;;;4996314;28;20052;-66
2022/06/27 13:00:51;;;;;;;4.05;2.30;;;23.90;61.30;;;;;;5012568;28;20504;-68